Station: Marble Bar  

  Atmospheric Gas Attenuation - ITU Rec 676-11   ----------------- dB/100km -----------------
Date Time Temp RH % AH g/m3 Dew Point Wind Direction Speed kph Gust kph Barometer mB Rainfall Since 9am 24GHz 47GHz 76GHz 122GHz 134GHz 241GHz
08/05 09:20 22.8 26 5.28 2.3 28 33 1021.3 0 12.2 19.2 24.8 64.3 51.6 175.3
08/05 09:10 22.8 26 5.28 2.3 28 37 1021.4 0 12.2 19.2 24.8 64.3 51.6 175.3
08/05 09:00 22.5 26 5.19 2.1 32 44 1021.3 0 12.1 19.1 24.6 63.8 50.9 172.6
08/05 08:50 22.4 26 5.16 1.9 30 39 1021.3 0 12.0 19.1 24.5 63.6 50.6 171.7
08/05 08:40 22.4 26 5.16 1.9 26 32 1021.3 0 12.0 19.1 24.5 63.6 50.6 171.7
08/05 08:30 22.3 26 5.13 1.9 26 37 1021.4 0 11.9 19.1 24.5 63.4 50.4 170.9
08/05 08:20 22.1 26 5.07 1.7 28 32 1021.3 0 11.8 19.1 24.3 63.1 49.9 169.1
08/05 08:10 21.3 27 5.03 1.5 20 26 1021.2 0 11.8 19.2 24.4 63.3 49.9 169.2
08/05 08:00 21.1 27 4.97 1.4 26 37 1021.2 0 11.7 19.1 24.3 63.0 49.4 167.4
08/05 07:50 20.8 27 4.89 1.1 24 30 1021.1 0 11.5 19.1 24.1 62.5 48.8 165.0
08/05 07:40 20.6 27 4.83 0.9 20 24 1021.3 0 11.4 19.1 24.0 62.2 48.2 163.2
08/05 07:30 20.4 27 4.78 0.8 22 33 1021.2 0 11.3 19.0 23.9 61.9 47.8 161.7
08/05 07:20 20.2 27 4.72 0.6 22 28 1021 0 11.2 19.0 23.7 61.5 47.3 159.9
08/05 07:10 19.9 28 4.81 0.8 17 19 1020.9 0 11.4 19.2 24.1 62.5 48.4 163.8
08/05 07:00 19.6 28 4.73 0.6 17 24 1020.8 0 11.2 19.1 23.9 62.0 47.8 161.4
08/05 06:50 19.3 28 4.64 0.3 15 19 1020.7 0 11.0 19.1 23.7 61.5 47.0 158.6
08/05 06:40 19.2 28 4.62 0.2 17 19 1020.5 0 11.0 19.0 23.7 61.4 46.8 158.0
08/05 06:30 19.3 28 4.64 0.4 19 30 1020.3 0 11.0 19.0 23.7 61.5 47.0 158.5
08/05 06:20 19.2 28 4.62 0.2 17 19 1020.2 0 11.0 19.0 23.7 61.3 46.8 157.9
08/05 06:10 19.4 28 4.67 0.4 19 22 1020.1 0 11.1 19.1 23.8 61.6 47.2 159.4
08/05 06:00 19.4 28 4.67 0.4 17 26 1020.1 0 11.1 19.1 23.8 61.6 47.2 159.4
08/05 05:50 19.4 28 4.67 0.4 15 20 1020.1 0 11.1 19.1 23.8 61.6 47.2 159.4
08/05 05:40 19.6 27 4.56 0.1 17 22 1020 0 10.8 18.9 23.4 60.5 45.9 154.9
08/05 05:30 19.4 27 4.5 -0.1 15 24 1019.9 0 10.7 18.8 23.2 60.2 45.4 153.1
08/05 05:20 19.5 27 4.53 0 15 17 1019.8 0 10.8 18.8 23.3 60.3 45.7 154.0
08/05 05:10 19.7 27 4.58 0.2 19 20 1019.6 0 10.9 18.9 23.4 60.6 46.1 155.4
08/05 05:00 19.6 27 4.56 0.1 15 20 1019.7 0 10.8 18.9 23.4 60.5 45.9 154.9
08/05 04:50 19.8 26 4.44 -0.3 15 19 1019.7 0 10.6 18.7 22.9 59.3 44.5 150.1
08/05 04:40 19.9 26 4.47 -0.2 22 30 1019.6 0 10.6 18.7 23.0 59.5 44.8 151.0
08/05 04:30 20.1 26 4.52 0 19 22 1019.6 0 10.7 18.7 23.1 59.8 45.2 152.5
08/05 04:20 20.1 26 4.52 0 17 24 1019.5 0 10.7 18.7 23.1 59.8 45.2 152.5
08/05 04:10 20.1 26 4.52 0 15 19 1019.5 0 10.7 18.7 23.1 59.8 45.2 152.5
08/05 04:00 20.3 25 4.4 -0.3 19 26 1019.5 0 10.5 18.5 22.7 58.6 43.9 147.7
08/05 03:50 20.3 25 4.4 -0.4 19 28 1019.4 0 10.5 18.5 22.7 58.6 43.9 147.7
08/05 03:40 20.3 25 4.4 -0.4 15 17 1019.3 0 10.5 18.5 22.7 58.6 43.9 147.7
08/05 03:30 20.5 25 4.45 -0.2 17 22 1019.2 0 10.6 18.5 22.8 58.9 44.3 149.2
08/05 03:20 20.6 24 4.3 -0.7 19 20 1019.2 0 10.3 18.3 22.3 57.6 42.7 143.5
08/05 03:10 20.7 24 4.32 -0.6 19 20 1019.2 0 10.3 18.3 22.3 57.7 42.8 144.1
08/05 03:00 20.9 24 4.37 -0.4 19 26 1019.1 0 10.4 18.3 22.4 57.9 43.2 145.5
08/05 02:50 20.8 24 4.35 -0.5 19 22 1018.9 0 10.4 18.3 22.4 57.8 43.1 145.0
08/05 02:40 20.9 24 4.37 -0.4 20 24 1018.9 0 10.4 18.3 22.4 57.9 43.2 145.5
08/05 02:30 21.1 23 4.24 -0.8 17 24 1018.9 0 10.1 18.1 21.9 56.7 41.8 140.5
08/05 02:20 21.2 23 4.26 -0.8 17 22 1019 0 10.2 18.1 22.0 56.8 41.9 141.1
08/05 02:10 21.4 23 4.31 -0.6 19 24 1019 0 10.3 18.2 22.1 57.1 42.3 142.5
08/05 02:00 21.5 23 4.34 -0.5 17 28 1019.1 0 10.3 18.2 22.2 57.3 42.6 143.4
08/05 01:50 21.6 23 4.36 -0.4 17 20 1019.1 0 10.4 18.2 22.2 57.4 42.8 144.0
08/05 01:40 21.6 23 4.36 -0.4 19 20 1019.2 0 10.4 18.2 22.2 57.4 42.8 144.0
08/05 01:30 21.9 23 4.44 -0.1 17 26 1019.3 0 10.5 18.2 22.4 57.8 43.4 146.4
08/05 01:20 21.8 23 4.41 -0.3 15 24 1019.3 0 10.5 18.2 22.3 57.7 43.2 145.5
08/05 01:10 21.9 23 4.44 -0.2 15 19 1019.2 0 10.5 18.2 22.4 57.8 43.4 146.3
08/05 01:00 22.2 23 4.52 0.1 19 28 1019.2 0 10.7 18.3 22.5 58.3 44.1 148.7
08/05 00:50 22.3 23 4.54 0.2 19 22 1019.1 0 10.7 18.3 22.6 58.4 44.2 149.2
08/05 00:40 22.5 22 4.39 -0.3 22 28 1019.1 0 10.4 18.1 22.0 57.0 42.6 143.5
08/05 00:30 22.6 22 4.42 -0.2 20 32 1019.1 0 10.5 18.1 22.1 57.2 42.8 144.4
08/05 00:20 22.5 22 4.39 -0.3 20 24 1019.2 0 10.4 18.1 22.0 57.0 42.6 143.5
08/05 00:10 22.7 22 4.44 -0.1 20 26 1019.2 0 10.5 18.1 22.1 57.3 43.0 145.0
08/05 00:00 22.8 21 4.27 -0.6 19 28 1019.3 0 10.2 17.9 21.6 55.9 41.3 138.8
07/05 23:50 22.9 21 4.29 -0.6 22 24 1019.3 0 10.2 17.9 21.6 56.0 41.4 139.4
07/05 23:40 23.1 21 4.34 -0.4 19 20 1019.4 0 10.3 17.9 21.7 56.2 41.8 140.8
07/05 23:30 23.1 21 4.34 -0.4 19 28 1019.4 0 10.3 17.9 21.7 56.2 41.8 140.8
07/05 23:20 23.4 20 4.21 -0.9 17 20 1019.5 0 10.0 17.7 21.3 55.0 40.4 135.8
07/05 23:10 23.6 20 4.25 -0.7 19 24 1019.4 0 10.1 17.7 21.4 55.2 40.7 136.8
07/05 23:00 23.6 20 4.25 -0.6 19 28 1019.4 0 10.1 17.7 21.4 55.2 40.7 136.8
07/05 22:50 23.7 20 4.28 -0.6 17 26 1019.4 0 10.1 17.7 21.4 55.4 40.9 137.7
07/05 22:40 23.8 19 4.09 -1.2 22 32 1019.4 0 9.8 17.5 20.8 53.8 39.0 131.0
07/05 22:30 23.7 19 4.06 -1.3 19 30 1019.3 0 9.7 17.4 20.8 53.6 38.8 130.1
07/05 22:20 23.8 19 4.09 -1.2 22 28 1019.4 0 9.8 17.5 20.8 53.8 39.0 131.0
07/05 22:10 23.8 19 4.09 -1.2 20 26 1019.4 0 9.8 17.5 20.8 53.8 39.0 131.0
07/05 22:00 23.9 18 3.89 -1.8 19 26 1019.2 0 9.3 17.2 20.2 52.1 37.0 124.0
07/05 21:50 24 18 3.92 -1.8 19 24 1019.3 0 9.4 17.2 20.3 52.3 37.3 124.8
07/05 21:40 23.9 19 4.11 -1.1 17 19 1019.2 0 9.8 17.5 20.9 53.9 39.1 131.5
07/05 21:30 24.1 18 3.94 -1.7 19 26 1019.1 0 9.4 17.2 20.3 52.4 37.4 125.4
07/05 21:20 24.4 18 4.01 -1.5 20 26 1019.1 0 9.6 17.3 20.4 52.8 37.9 127.3
07/05 21:10 24.4 19 4.23 -0.7 20 28 1019 0 10.0 17.5 21.1 54.5 40.1 134.8
07/05 21:00 24.5 19 4.25 -0.6 20 33 1018.9 0 10.1 17.5 21.1 54.6 40.2 135.3
07/05 20:50 24.5 20 4.48 0.1 19 28 1018.8 0 10.5 17.8 21.8 56.4 42.5 143.3
07/05 20:40 24.6 21 4.73 0.8 20 28 1018.7 0 11.1 18.1 22.5 58.3 44.9 151.8
07/05 20:30 24.6 21 4.73 0.8 17 24 1018.7 0 11.1 18.1 22.5 58.3 44.9 151.8
07/05 20:20 24.8 20 4.55 0.3 17 20 1018.7 0 10.7 17.8 21.9 56.7 43.0 145.2
07/05 20:10 25.1 20 4.63 0.5 17 20 1018.6 0 10.8 17.9 22.1 57.2 43.6 147.4
07/05 20:00 25.1 20 4.63 0.6 15 22 1018.5 0 10.8 17.9 22.1 57.1 43.6 147.4
07/05 19:50 25.3 20 4.68 0.7 15 19 1018.4 0 10.9 17.9 22.2 57.4 44.0 148.8
07/05 19:40 25.3 20 4.68 0.7 15 19 1018.3 0 10.9 17.9 22.2 57.4 44.0 148.7
07/05 19:30 25.5 20 4.73 0.9 19 28 1018 0 11.0 17.9 22.3 57.6 44.4 150.1
07/05 19:20 25.4 20 4.71 0.8 17 19 1017.9 0 11.0 17.9 22.2 57.5 44.2 149.6
07/05 19:10 25.6 21 5 1.6 17 20 1017.8 0 11.6 18.2 23.0 59.7 47.0 159.2
07/05 19:00 25.6 21 5 1.7 13 19 1017.6 0 11.6 18.2 23.0 59.7 47.0 159.2
07/05 18:50 25.8 21 5.06 1.8 15 19 1017.5 0 11.7 18.2 23.1 60.0 47.4 160.9
07/05 18:40 26 21 5.11 2 11 15 1017.4 0 11.8 18.2 23.2 60.3 47.8 162.3
07/05 18:30 26.4 20 4.98 1.7 17 24 1017.3 0 11.5 18.0 22.7 58.9 46.3 157.0
07/05 18:20 26.6 20 5.03 1.8 15 19 1017.2 0 11.6 18.0 22.8 59.2 46.7 158.3
07/05 18:10 26.9 20 5.12 2 20 24 1017.1 0 11.8 18.1 23.0 59.7 47.4 160.9
07/05 18:00 27 20 5.15 2.1 17 26 1017 0 11.8 18.1 23.1 59.9 47.6 161.7
07/05 17:50 27.3 20 5.23 2.4 19 22 1016.9 0 12.0 18.1 23.2 60.3 48.2 163.9
07/05 17:40 27.5 20 5.29 2.5 17 20 1016.8 0 12.1 18.2 23.3 60.6 48.7 165.5
07/05 17:30 27.7 19 5.08 2 22 32 1016.7 0 11.7 17.9 22.7 58.8 46.5 157.9
07/05 17:20 28 19 5.17 2.2 22 30 1016.5 0 11.9 17.9 22.8 59.3 47.2 160.4
07/05 17:10 28.2 19 5.22 2.4 22 28 1016.3 0 12.0 17.9 22.9 59.5 47.6 161.7
07/05 17:00 28.5 19 5.31 2.7 22 39 1016.3 0 12.1 18.0 23.1 60.0 48.3 164.2
07/05 16:50 28.7 19 5.37 2.8 19 24 1016.2 0 12.2 18.0 23.2 60.3 48.7 165.8

Last Refresh: 08-May-2026 11:04:27

Bureau of Meteorology